createdAt,value
2022-09-15T00:00:02.925Z,82.42
2022-09-15T00:02:33.168Z,82.57
2022-09-15T00:05:03.454Z,82.56
2022-09-15T00:07:33.852Z,82.42
2022-09-15T00:10:04.418Z,82.58
2022-09-15T00:12:35.066Z,82.71
2022-09-15T00:15:06.632Z,82.78
2022-09-15T00:17:37.055Z,82.80
2022-09-15T00:20:09.224Z,82.78
2022-09-15T00:22:39.466Z,82.84
2022-09-15T00:25:09.914Z,83.00
2022-09-15T00:27:40.106Z,83.16
2022-09-15T00:30:11.809Z,83.26
2022-09-15T00:32:41.941Z,83.16
2022-09-15T00:35:12.322Z,83.37
2022-09-15T00:37:42.551Z,83.60
2022-09-15T00:40:13.300Z,83.79
2022-09-15T00:42:43.474Z,83.71
2022-09-15T00:45:18.167Z,83.78
2022-09-15T00:47:48.424Z,83.79
2022-09-15T00:50:21.612Z,83.89
2022-09-15T00:52:55.927Z,83.85
2022-09-15T00:55:31.575Z,83.88
2022-09-15T00:58:06.666Z,83.94
2022-09-15T01:00:37.387Z,83.99
2022-09-15T01:03:07.871Z,83.98
2022-09-15T01:05:41.554Z,84.04
2022-09-15T01:08:17.610Z,84.06
2022-09-15T01:10:47.755Z,84.18
2022-09-15T01:13:17.993Z,84.10
2022-09-15T01:15:56.165Z,84.17
2022-09-15T01:18:34.195Z,84.10
2022-09-15T01:21:18.071Z,84.15
2022-09-15T01:24:20.897Z,83.80
2022-09-15T01:27:13.660Z,83.48
2022-09-15T01:30:00.979Z,83.35
2022-09-15T01:32:55.150Z,83.46
2022-09-15T01:35:33.774Z,83.55
2022-09-15T01:38:10.112Z,83.66
2022-09-15T01:40:48.151Z,83.75
2022-09-15T01:43:21.015Z,83.87
2022-09-15T01:45:52.456Z,84.08
2022-09-15T01:48:25.722Z,83.98
2022-09-15T01:51:00.517Z,83.84
2022-09-15T01:53:31.295Z,83.93
2022-09-15T01:56:05.960Z,84.10
2022-09-15T01:58:38.267Z,84.05
2022-09-15T02:01:14.381Z,83.92
2022-09-15T02:03:50.320Z,83.80
2022-09-15T02:06:37.344Z,83.95
2022-09-15T02:09:13.759Z,84.24
2022-09-15T02:11:57.186Z,84.60
2022-09-15T02:14:43.113Z,84.78
2022-09-15T02:17:17.335Z,84.93
2022-09-15T02:19:50.789Z,84.82
2022-09-15T02:22:27.964Z,84.92
2022-09-15T02:25:05.815Z,85.10
2022-09-15T02:27:37.801Z,85.19
2022-09-15T02:30:12.824Z,85.29
2022-09-15T02:32:48.393Z,85.36
2022-09-15T02:35:19.659Z,85.51
2022-09-15T02:37:51.289Z,85.59
2022-09-15T02:40:21.826Z,85.67
2022-09-15T02:43:01.044Z,85.57
2022-09-15T02:45:32.745Z,85.60
2022-09-15T02:48:03.247Z,85.75
2022-09-15T02:50:33.631Z,85.85
2022-09-15T02:53:03.768Z,85.86
2022-09-15T02:55:33.907Z,85.83
2022-09-15T02:58:04.285Z,85.81
2022-09-15T03:00:35.082Z,85.87
2022-09-15T03:03:05.267Z,85.88
2022-09-15T03:05:35.353Z,85.94
2022-09-15T03:08:05.980Z,86.05
2022-09-15T03:10:36.718Z,86.09
2022-09-15T03:13:07.648Z,86.10
2022-09-15T03:15:39.305Z,86.07
2022-09-15T03:18:09.470Z,86.08
2022-09-15T03:20:39.783Z,85.84
2022-09-15T03:23:09.920Z,85.72
2022-09-15T03:25:40.028Z,85.58
2022-09-15T03:28:11.049Z,85.62
2022-09-15T03:30:42.374Z,85.76
2022-09-15T03:33:12.525Z,85.96
2022-09-15T03:35:42.673Z,86.03
2022-09-15T03:38:12.810Z,85.99
2022-09-15T03:40:43.945Z,85.98
2022-09-15T03:43:18.643Z,86.04
2022-09-15T03:45:49.007Z,86.15
2022-09-15T03:48:19.263Z,86.23
2022-09-15T03:50:49.413Z,86.33
2022-09-15T03:53:20.439Z,86.22
2022-09-15T03:55:50.646Z,86.19
2022-09-15T03:58:21.189Z,86.38
2022-09-15T04:00:51.769Z,86.48
2022-09-15T04:03:21.984Z,86.37
2022-09-15T04:05:52.065Z,86.52
2022-09-15T04:08:22.658Z,86.60
2022-09-15T04:10:54.769Z,86.67
2022-09-15T04:13:28.551Z,86.69
2022-09-15T04:16:02.724Z,86.81
2022-09-15T04:18:33.786Z,86.85
2022-09-15T04:21:06.265Z,86.82
2022-09-15T04:23:37.270Z,86.99
2022-09-15T04:26:09.726Z,86.98
2022-09-15T04:28:40.718Z,86.97
2022-09-15T04:31:13.550Z,87.14
2022-09-15T04:33:45.237Z,87.36
2022-09-15T04:36:17.254Z,87.45
2022-09-15T04:38:47.955Z,87.44
2022-09-15T04:41:19.025Z,87.58
2022-09-15T04:43:49.753Z,87.73
2022-09-15T04:46:21.149Z,87.76
2022-09-15T04:48:51.889Z,87.78
2022-09-15T04:51:23.828Z,87.75
2022-09-15T04:53:54.512Z,87.96
2022-09-15T04:56:26.418Z,87.85
2022-09-15T04:59:03.476Z,88.18
2022-09-15T05:01:36.220Z,88.20
2022-09-15T05:04:06.928Z,88.21
2022-09-15T05:06:38.234Z,88.02
2022-09-15T05:09:10.635Z,88.11
2022-09-15T05:11:41.443Z,88.25
2022-09-15T05:14:12.478Z,88.25
2022-09-15T05:16:43.022Z,88.37
2022-09-15T05:19:13.350Z,88.53
2022-09-15T05:21:43.565Z,88.47
2022-09-15T05:24:14.340Z,88.49
2022-09-15T05:26:44.460Z,88.50
2022-09-15T05:29:14.722Z,88.56
2022-09-15T05:31:44.892Z,88.40
2022-09-15T05:34:15.324Z,88.28
2022-09-15T05:36:45.423Z,88.09
2022-09-15T05:39:15.846Z,88.01
2022-09-15T05:41:46.275Z,88.11
2022-09-15T05:44:16.434Z,88.09
2022-09-15T05:46:46.563Z,88.05
2022-09-15T05:49:16.740Z,88.00
2022-09-15T05:51:46.943Z,87.95
2022-09-15T05:54:17.196Z,87.99
2022-09-15T05:56:47.317Z,87.96
2022-09-15T05:59:17.543Z,87.91
2022-09-15T06:01:48.078Z,87.91
2022-09-15T06:04:18.534Z,88.02
2022-09-15T06:06:48.719Z,87.85
2022-09-15T06:09:18.914Z,88.00
2022-09-15T06:11:49.098Z,88.08
2022-09-15T06:14:19.254Z,88.04
2022-09-15T06:16:49.688Z,88.01
2022-09-15T06:19:19.873Z,88.05
2022-09-15T06:21:50.074Z,88.06
2022-09-15T06:24:20.569Z,87.89
2022-09-15T06:26:50.702Z,87.86
2022-09-15T06:29:20.918Z,87.66
2022-09-15T06:31:51.138Z,87.68
2022-09-15T06:34:21.522Z,87.56
2022-09-15T06:36:51.656Z,87.42
2022-09-15T06:39:21.737Z,87.26
2022-09-15T06:42:02.311Z,87.15
2022-09-15T06:44:33.352Z,86.83
2022-09-15T06:47:04.057Z,86.68
2022-09-15T06:49:34.220Z,86.68
2022-09-15T06:52:05.134Z,86.49
2022-09-15T06:54:35.280Z,86.48
2022-09-15T06:57:06.147Z,86.21
2022-09-15T06:59:36.376Z,86.05
2022-09-15T07:02:06.647Z,85.91
2022-09-15T07:04:37.811Z,85.94
2022-09-15T07:07:08.001Z,85.86
2022-09-15T07:09:41.128Z,85.83
2022-09-15T07:12:11.813Z,85.85
2022-09-15T07:14:42.740Z,85.82
2022-09-15T07:17:12.950Z,85.68
2022-09-15T07:19:43.140Z,85.47
2022-09-15T07:22:13.817Z,85.34
2022-09-15T07:24:44.318Z,85.22
2022-09-15T07:27:14.457Z,85.03
2022-09-15T07:29:44.910Z,85.12
2022-09-15T07:32:15.343Z,84.84
2022-09-15T07:34:45.842Z,84.64
2022-09-15T07:37:16.442Z,84.67
2022-09-15T07:39:46.963Z,84.04
2022-09-15T07:42:17.162Z,84.11
2022-09-15T07:44:47.347Z,84.12
2022-09-15T07:47:17.487Z,83.93
2022-09-15T07:49:47.621Z,83.97
2022-09-15T07:52:17.862Z,83.84
2022-09-15T07:54:47.953Z,83.67
2022-09-15T07:57:18.120Z,83.61
2022-09-15T07:59:48.750Z,83.62
2022-09-15T08:02:21.073Z,83.61
2022-09-15T08:04:51.352Z,83.53
2022-09-15T08:07:21.551Z,83.22
2022-09-15T08:09:51.805Z,82.98
2022-09-15T08:12:21.918Z,82.65
2022-09-15T08:14:52.092Z,82.77
2022-09-15T08:17:22.199Z,82.71
2022-09-15T08:19:52.717Z,82.56
2022-09-15T08:22:22.865Z,82.25
2022-09-15T08:24:53.045Z,82.20
2022-09-15T08:27:23.196Z,82.04
2022-09-15T08:29:53.489Z,81.71
2022-09-15T08:32:23.597Z,81.65
2022-09-15T08:34:54.054Z,81.58
2022-09-15T08:37:24.272Z,81.53
2022-09-15T08:39:54.461Z,80.87
2022-09-15T08:42:26.894Z,80.42
2022-09-15T08:45:02.406Z,79.80
2022-09-15T08:47:37.762Z,79.73
2022-09-15T08:50:15.519Z,79.38
2022-09-15T08:52:51.468Z,79.07
2022-09-15T08:55:38.469Z,78.89
2022-09-15T08:58:10.642Z,78.55
2022-09-15T09:00:43.061Z,78.35
2022-09-15T09:03:30.741Z,77.94
2022-09-15T09:06:10.406Z,78.09
2022-09-15T09:09:04.394Z,77.90
2022-09-15T09:11:48.642Z,77.50
2022-09-15T09:14:32.150Z,76.88
2022-09-15T09:17:16.550Z,76.87
2022-09-15T09:20:16.696Z,75.09
2022-09-15T09:22:49.896Z,73.94
2022-09-15T09:25:27.691Z,73.38
2022-09-15T09:27:59.370Z,72.89
2022-09-15T09:30:33.996Z,71.88
2022-09-15T09:33:16.720Z,70.53
2022-09-15T09:35:49.777Z,70.10
2022-09-15T09:38:26.059Z,70.55
2022-09-15T09:41:01.405Z,70.79
2022-09-15T09:43:33.725Z,71.01
2022-09-15T09:46:05.393Z,70.12
2022-09-15T09:48:37.205Z,69.81
2022-09-15T09:51:32.200Z,69.33
2022-09-15T09:54:12.025Z,69.52
2022-09-15T09:56:42.166Z,69.55
2022-09-15T09:59:35.505Z,68.46
2022-09-15T10:02:16.614Z,68.19
2022-09-15T10:04:48.092Z,66.93
2022-09-15T10:07:21.068Z,66.97
2022-09-15T10:09:54.427Z,66.94
2022-09-15T10:12:41.470Z,66.97
2022-09-15T10:15:24.504Z,67.25
2022-09-15T10:17:56.757Z,67.44
2022-09-15T10:20:32.756Z,67.53
2022-09-15T10:23:23.222Z,66.69
2022-09-15T10:25:59.639Z,66.32
2022-09-15T10:28:30.645Z,66.20
2022-09-15T10:31:07.016Z,65.20
2022-09-15T10:33:38.953Z,65.03
2022-09-15T10:36:14.173Z,64.28
2022-09-15T10:38:47.595Z,62.67
2022-09-15T10:41:26.335Z,62.87
2022-09-15T10:44:13.749Z,62.69
2022-09-15T10:46:47.551Z,61.65
2022-09-15T10:49:26.338Z,62.07
2022-09-15T10:52:07.693Z,61.39
2022-09-15T10:54:55.085Z,61.07
2022-09-15T10:57:31.859Z,61.03
2022-09-15T11:00:07.344Z,60.28
2022-09-15T11:02:56.144Z,60.60
2022-09-15T11:05:49.602Z,60.25
2022-09-15T11:08:36.239Z,60.32
2022-09-15T11:11:15.573Z,59.95
2022-09-15T11:13:58.642Z,58.30
2022-09-15T11:16:41.171Z,59.04
2022-09-15T11:19:23.937Z,59.72
2022-09-15T11:21:57.048Z,59.25
2022-09-15T11:24:35.877Z,58.86
2022-09-15T11:27:13.862Z,58.84
2022-09-15T11:30:01.135Z,57.92
2022-09-15T11:32:36.189Z,58.01
2022-09-15T11:35:29.201Z,58.54
2022-09-15T11:38:07.263Z,59.28
2022-09-15T11:40:47.516Z,59.09
2022-09-15T11:43:18.183Z,59.26
2022-09-15T11:45:52.474Z,59.61
2022-09-15T11:48:29.287Z,60.59
2022-09-15T11:51:03.214Z,61.94
2022-09-15T11:53:39.128Z,61.64
2022-09-15T11:56:19.489Z,62.09
2022-09-15T11:59:08.329Z,62.60
2022-09-15T12:01:48.682Z,61.50
2022-09-15T12:04:24.542Z,60.91
2022-09-15T12:07:01.099Z,60.65
2022-09-15T12:09:31.464Z,59.78
2022-09-15T12:12:07.475Z,59.42
2022-09-15T12:14:40.391Z,59.13
2022-09-15T12:17:18.546Z,58.58
2022-09-15T12:19:57.298Z,58.48
2022-09-15T12:22:34.143Z,58.38
2022-09-15T12:25:12.846Z,58.19
2022-09-15T12:27:42.978Z,58.95
2022-09-15T12:30:42.022Z,58.87
2022-09-15T12:33:45.792Z,59.05
2022-09-15T12:36:39.055Z,60.36
2022-09-15T12:39:29.392Z,61.29
2022-09-15T12:42:14.706Z,61.38
2022-09-15T12:44:48.658Z,61.58
2022-09-15T12:47:28.384Z,62.05
2022-09-15T12:50:03.392Z,61.98
2022-09-15T12:52:42.484Z,62.20
2022-09-15T12:55:21.162Z,62.14
2022-09-15T12:57:58.047Z,60.87
2022-09-15T13:00:34.798Z,60.86
2022-09-15T13:03:06.086Z,60.65
2022-09-15T13:06:17.135Z,60.44
2022-09-15T13:09:27.563Z,60.15
2022-09-15T13:11:59.128Z,60.57
2022-09-15T13:14:39.291Z,60.59
2022-09-15T13:17:16.494Z,60.19
2022-09-15T13:19:51.639Z,60.51
2022-09-15T13:22:30.067Z,59.71
2022-09-15T13:25:03.899Z,60.21
2022-09-15T13:27:39.590Z,59.86
2022-09-15T13:30:30.301Z,59.85
2022-09-15T13:33:07.809Z,61.07
2022-09-15T13:36:04.642Z,61.92
2022-09-15T13:38:53.880Z,61.19
2022-09-15T13:41:55.000Z,60.46
2022-09-15T13:44:42.543Z,59.82
2022-09-15T13:47:27.481Z,59.84
2022-09-15T13:50:14.681Z,57.63
2022-09-15T13:53:15.390Z,56.94
2022-09-15T13:55:46.568Z,56.83
2022-09-15T14:01:12.994Z,54.83
2022-09-15T14:03:46.736Z,55.01
2022-09-15T14:06:21.673Z,55.70
2022-09-15T14:08:54.902Z,56.45
2022-09-15T14:11:30.782Z,56.01
2022-09-15T14:14:01.586Z,56.79
2022-09-15T14:16:37.241Z,56.96
2022-09-15T14:19:33.334Z,56.19
2022-09-15T14:22:19.278Z,55.06
2022-09-15T14:24:51.598Z,54.43
2022-09-15T14:27:25.538Z,55.29
2022-09-15T14:29:57.757Z,54.76
2022-09-15T14:32:29.686Z,53.81
2022-09-15T14:35:05.454Z,53.59
2022-09-15T14:37:36.508Z,54.02
2022-09-15T14:40:23.453Z,53.27
2022-09-15T14:42:54.080Z,53.49
2022-09-15T14:45:57.698Z,56.14
2022-09-15T14:48:28.269Z,55.67
2022-09-15T14:51:03.701Z,55.92
2022-09-15T14:53:38.360Z,56.26
2022-09-15T14:56:13.855Z,54.40
2022-09-15T14:58:47.866Z,54.61
2022-09-15T15:01:25.002Z,54.27
2022-09-15T15:04:03.228Z,52.57
2022-09-15T15:06:37.316Z,52.95
2022-09-15T15:09:21.404Z,53.41
2022-09-15T15:11:57.718Z,52.45
2022-09-15T15:14:28.755Z,53.24
2022-09-15T15:17:03.798Z,53.63
2022-09-15T15:19:38.027Z,52.78
2022-09-15T15:22:20.911Z,52.43
2022-09-15T15:24:53.667Z,52.54
2022-09-15T15:27:39.678Z,52.78
2022-09-15T15:30:48.371Z,53.12
2022-09-15T15:33:28.967Z,53.47
2022-09-15T15:36:08.247Z,52.57
2022-09-15T15:38:46.400Z,52.99
2022-09-15T15:41:23.973Z,53.16
2022-09-15T15:44:26.685Z,53.37
2022-09-15T15:46:58.441Z,52.86
2022-09-15T15:49:30.827Z,52.67
2022-09-15T15:52:02.550Z,52.86
2022-09-15T15:54:36.650Z,52.94
2022-09-15T15:57:23.331Z,52.37
2022-09-15T15:59:58.353Z,53.27
2022-09-15T16:02:29.300Z,53.43
2022-09-15T16:04:59.943Z,53.50
2022-09-15T16:07:33.427Z,53.20
2022-09-15T16:10:04.429Z,53.59
2022-09-15T16:12:35.453Z,54.39
2022-09-15T16:15:13.509Z,54.66
2022-09-15T16:17:46.721Z,54.85
2022-09-15T16:20:19.685Z,58.20
2022-09-15T16:22:50.411Z,62.91
2022-09-15T16:25:28.618Z,64.38
2022-09-15T16:27:59.907Z,65.69
2022-09-15T16:30:30.298Z,66.46
2022-09-15T16:33:00.778Z,68.11
2022-09-15T16:35:39.245Z,71.03
2022-09-15T16:38:10.275Z,72.43
2022-09-15T16:40:40.413Z,72.65
2022-09-15T16:43:16.071Z,72.77
2022-09-15T16:45:47.036Z,72.80
2022-09-15T16:48:17.832Z,72.85
2022-09-15T16:51:09.019Z,72.80
2022-09-15T16:53:39.933Z,72.34
2022-09-15T16:56:13.056Z,72.31
2022-09-15T16:58:43.897Z,72.05
2022-09-15T17:01:19.737Z,71.70
2022-09-15T17:03:51.505Z,71.45
2022-09-15T17:06:23.960Z,71.01
2022-09-15T17:08:55.776Z,70.90
2022-09-15T17:11:30.491Z,71.02
2022-09-15T17:14:02.448Z,70.89
2022-09-15T17:16:37.094Z,71.15
2022-09-15T17:19:08.274Z,71.12
2022-09-15T17:21:40.045Z,71.08
2022-09-15T17:24:12.738Z,70.96
2022-09-15T17:26:42.984Z,71.14
2022-09-15T17:29:13.473Z,71.26
2022-09-15T17:31:44.242Z,70.95
2022-09-15T17:34:15.865Z,70.92
2022-09-15T17:36:46.450Z,70.96
2022-09-15T17:39:17.041Z,71.20
2022-09-15T17:41:47.179Z,70.98
2022-09-15T17:44:17.582Z,71.07
2022-09-15T17:46:47.849Z,70.99
2022-09-15T17:49:18.575Z,70.97
2022-09-15T17:51:49.054Z,71.04
2022-09-15T17:54:19.651Z,71.33
2022-09-15T17:56:50.005Z,71.24
2022-09-15T17:59:21.163Z,71.44
2022-09-15T18:01:51.885Z,71.86
2022-09-15T18:04:22.374Z,72.13
2022-09-15T18:06:53.880Z,72.23
2022-09-15T18:09:25.247Z,72.52
2022-09-15T18:11:55.770Z,72.50
2022-09-15T18:14:26.678Z,72.77
2022-09-15T18:16:57.493Z,73.11
2022-09-15T18:19:28.068Z,73.20
2022-09-15T18:21:58.675Z,73.46
2022-09-15T18:24:29.987Z,73.49
2022-09-15T18:27:00.948Z,73.75
2022-09-15T18:29:31.209Z,73.63
2022-09-15T18:32:03.123Z,73.69
2022-09-15T18:34:34.080Z,73.77
2022-09-15T18:37:05.013Z,73.98
2022-09-15T18:39:35.819Z,74.17
2022-09-15T18:42:06.245Z,75.17
2022-09-15T18:44:36.795Z,74.79
2022-09-15T18:47:07.860Z,74.59
2022-09-15T18:49:38.352Z,74.58
2022-09-15T18:52:09.559Z,74.47
2022-09-15T18:54:40.189Z,74.11
2022-09-15T18:57:11.226Z,74.62
2022-09-15T18:59:41.975Z,74.82
2022-09-15T19:02:14.586Z,74.89
2022-09-15T19:04:46.324Z,75.24
2022-09-15T19:07:17.327Z,75.24
2022-09-15T19:09:55.770Z,75.30
2022-09-15T19:12:27.167Z,75.30
2022-09-15T19:14:58.298Z,74.99
2022-09-15T19:17:28.526Z,75.01
2022-09-15T19:20:00.604Z,75.18
2022-09-15T19:22:31.551Z,75.01
2022-09-15T19:25:02.718Z,73.92
2022-09-15T19:27:33.643Z,73.47
2022-09-15T19:30:04.113Z,72.84
2022-09-15T19:32:35.604Z,72.36
2022-09-15T19:35:07.680Z,72.29
2022-09-15T19:37:41.530Z,72.36
2022-09-15T19:40:15.211Z,72.48
2022-09-15T19:42:46.302Z,72.49
2022-09-15T19:45:21.149Z,72.75
2022-09-15T19:47:52.693Z,72.78
2022-09-15T19:50:23.472Z,72.77
2022-09-15T19:52:58.850Z,72.64
2022-09-15T19:55:30.889Z,72.47
2022-09-15T19:58:01.890Z,72.50
2022-09-15T20:00:32.714Z,72.42
2022-09-15T20:03:03.711Z,72.41
2022-09-15T20:05:34.091Z,72.44
2022-09-15T20:08:05.173Z,72.59
2022-09-15T20:10:36.008Z,72.62
2022-09-15T20:13:07.396Z,72.71
2022-09-15T20:15:37.968Z,72.84
2022-09-15T20:18:09.134Z,72.93
2022-09-15T20:20:42.245Z,73.28
2022-09-15T20:23:13.308Z,73.49
2022-09-15T20:25:44.340Z,74.15
2022-09-15T20:28:14.974Z,74.14
2022-09-15T20:30:46.213Z,73.98
2022-09-15T20:33:16.723Z,74.09
2022-09-15T20:35:47.210Z,74.23
2022-09-15T20:38:17.761Z,74.34
2022-09-15T20:40:48.413Z,74.15
2022-09-15T20:43:18.659Z,74.23
2022-09-15T20:45:59.672Z,74.26
2022-09-15T20:48:33.017Z,74.17
2022-09-15T20:51:06.012Z,74.19
2022-09-15T20:53:37.510Z,74.15
2022-09-15T20:56:08.431Z,74.24
2022-09-15T20:58:40.032Z,74.14
2022-09-15T21:01:13.798Z,74.16
2022-09-15T21:03:46.586Z,74.25
2022-09-15T21:06:18.864Z,74.25
2022-09-15T21:08:51.321Z,74.36
2022-09-15T21:11:23.360Z,74.36
2022-09-15T21:13:54.393Z,74.34
2022-09-15T21:16:27.116Z,74.53
2022-09-15T21:18:58.985Z,74.64
2022-09-15T21:21:31.540Z,74.80
2022-09-15T21:24:03.934Z,75.04
2022-09-15T21:26:58.021Z,75.14
2022-09-15T21:29:29.466Z,75.06
2022-09-15T21:31:59.971Z,75.29
2022-09-15T21:34:33.211Z,75.41
2022-09-15T21:37:03.334Z,75.69
2022-09-15T21:39:34.578Z,75.85
2022-09-15T21:42:05.322Z,75.93
2022-09-15T21:44:36.785Z,75.95
2022-09-15T21:47:07.651Z,76.11
2022-09-15T21:49:38.196Z,76.13
2022-09-15T21:52:08.950Z,76.24
2022-09-15T21:54:40.053Z,76.45
2022-09-15T21:57:10.342Z,76.72
2022-09-15T21:59:41.772Z,76.79
2022-09-15T22:02:12.441Z,76.67
2022-09-15T22:04:43.047Z,76.77
2022-09-15T22:07:15.372Z,76.64
2022-09-15T22:09:46.578Z,76.63
2022-09-15T22:12:16.768Z,76.65
2022-09-15T22:14:47.729Z,76.68
2022-09-15T22:17:18.314Z,76.61
2022-09-15T22:19:48.827Z,76.78
2022-09-15T22:22:19.004Z,76.64
2022-09-15T22:24:50.348Z,76.72
2022-09-15T22:27:21.098Z,76.59
2022-09-15T22:29:51.902Z,76.73
2022-09-15T22:32:22.258Z,76.65
2022-09-15T22:34:53.361Z,76.67
2022-09-15T22:37:27.701Z,76.63
2022-09-15T22:39:59.520Z,76.67
2022-09-15T22:42:29.950Z,76.54
2022-09-15T22:45:00.653Z,76.41
2022-09-15T22:47:33.906Z,76.37
2022-09-15T22:50:04.944Z,76.35
2022-09-15T22:52:36.403Z,76.20
2022-09-15T22:55:07.609Z,76.16
2022-09-15T22:57:39.592Z,76.02
2022-09-15T23:00:12.789Z,75.99
2022-09-15T23:02:43.003Z,76.02
2022-09-15T23:05:13.476Z,76.02
2022-09-15T23:07:43.798Z,76.06
2022-09-15T23:10:14.347Z,76.04
2022-09-15T23:12:45.179Z,76.04
2022-09-15T23:15:16.422Z,76.21
2022-09-15T23:17:47.390Z,76.31
2022-09-15T23:20:17.944Z,76.46
2022-09-15T23:22:48.411Z,76.51
2022-09-15T23:25:18.689Z,76.67
2022-09-15T23:27:49.081Z,76.74
2022-09-15T23:30:19.284Z,76.86
2022-09-15T23:32:49.789Z,76.93
2022-09-15T23:35:19.904Z,76.85
2022-09-15T23:37:51.014Z,76.85
2022-09-15T23:40:21.536Z,76.85
2022-09-15T23:42:51.719Z,76.90
2022-09-15T23:45:21.844Z,76.94
2022-09-15T23:47:52.362Z,76.98
2022-09-15T23:50:23.277Z,77.06
2022-09-15T23:52:53.383Z,77.02
2022-09-15T23:55:23.976Z,77.02
2022-09-15T23:57:54.632Z,77.05
